Time;durP1;ratioP1;P1;durP2;ratioP2;P2;SDS_P1;SDS_P2;PMS_P1;PMS_P2;Temp;Humidity;BMP_temperature;BMP_pressure;BME280_temperature;BME280_humidity;BME280_pressure;Samples;Min_cycle;Max_cycle;Signal;HPM_P1;HPM_P2
2022/07/25 00:01:18;;;;;;;13.18;11.98;;;;;;;;;;5112328;28;20098;-79
2022/07/25 00:03:44;;;;;;;13.82;12.68;;;;;;;;;;5112491;28;20107;-79
2022/07/25 00:06:10;;;;;;;13.68;12.70;;;;;;;;;;5112180;28;20394;-79
2022/07/25 00:08:36;;;;;;;14.65;13.43;;;;;;;;;;5112115;28;20375;-79
2022/07/25 00:11:02;;;;;;;14.10;13.10;;;;;;;;;;5112326;28;20063;-79
2022/07/25 00:13:29;;;;;;;13.43;12.35;;;;;;;;;;5112024;28;20148;-79
2022/07/25 00:15:55;;;;;;;12.60;11.70;;;;;;;;;;5112364;28;20032;-79
2022/07/25 00:18:21;;;;;;;12.80;11.70;;;;;;;;;;5112773;28;20115;-78
2022/07/25 00:20:47;;;;;;;12.55;11.65;;;;;;;;;;5116288;28;20027;-79
2022/07/25 00:23:13;;;;;;;11.77;10.93;;;;;;;;;;5116064;28;20495;-79
2022/07/25 00:25:39;;;;;;;11.45;10.55;;;;;;;;;;5115980;28;20028;-78
2022/07/25 00:28:05;;;;;;;11.20;10.30;;;;;;;;;;5116200;28;20039;-79
2022/07/25 00:30:31;;;;;;;11.15;10.35;;;;;;;;;;5115586;28;20039;-79
2022/07/25 00:32:57;;;;;;;11.77;10.88;;;;;;;;;;5116186;28;20034;-79
2022/07/25 00:35:23;;;;;;;11.93;11.02;;;;;;;;;;5115743;28;20107;-79
2022/07/25 00:37:49;;;;;;;11.50;10.60;;;;;;;;;;5115758;28;20045;-79
2022/07/25 00:40:16;;;;;;;10.98;10.18;;;;;;;;;;5115968;28;20467;-78
2022/07/25 00:42:42;;;;;;;11.65;10.77;;;;;;;;;;5115788;28;20427;-79
2022/07/25 00:45:08;;;;;;;10.88;9.98;;;;;;;;;;5115883;28;20020;-78
2022/07/25 00:47:34;;;;;;;12.38;11.27;;;;;;;;;;5115509;28;20104;-78
2022/07/25 00:50:00;;;;;;;11.60;10.60;;;;;;;;;;5115677;28;20070;-78
2022/07/25 00:52:27;;;;;;;11.25;10.40;;;;;;;;;;5115521;28;20023;-79
2022/07/25 00:54:53;;;;;;;11.95;10.85;;;;;;;;;;5115722;28;20023;-79
2022/07/25 00:57:19;;;;;;;11.50;10.55;;;;;;;;;;5115715;28;20020;-79
2022/07/25 00:59:45;;;;;;;12.15;11.13;;;;;;;;;;5115298;28;20107;-79
2022/07/25 01:02:11;;;;;;;12.18;11.15;;;;;;;;;;5115674;28;20038;-79
2022/07/25 01:04:37;;;;;;;12.10;11.30;;;;;;;;;;5115281;28;20387;-79
2022/07/25 01:07:03;;;;;;;13.30;12.30;;;;;;;;;;5115508;28;20055;-78
2022/07/25 01:09:29;;;;;;;13.73;12.50;;;;;;;;;;5115220;28;20046;-79
2022/07/25 01:11:56;;;;;;;13.77;12.77;;;;;;;;;;5115150;28;20028;-78
2022/07/25 01:14:22;;;;;;;14.18;12.60;;;;;;;;;;5115537;28;20031;-79
2022/07/25 01:16:48;;;;;;;13.00;12.00;;;;;;;;;;5115050;28;20077;-78
2022/07/25 01:19:14;;;;;;;13.18;12.18;;;;;;;;;;5115285;28;20055;-78
2022/07/25 01:21:42;;;;;;;12.25;11.35;;;;;;;;;;5115016;28;20027;-78
2022/07/25 01:24:08;;;;;;;13.00;12.00;;;;;;;;;;5115203;28;20110;-78
2022/07/25 01:26:34;;;;;;;12.23;11.23;;;;;;;;;;5114982;28;20387;-79
2022/07/25 01:29:00;;;;;;;13.05;12.05;;;;;;;;;;5114777;28;20032;-78
2022/07/25 01:31:26;;;;;;;12.27;11.32;;;;;;;;;;5113686;28;20052;-78
2022/07/25 01:33:52;;;;;;;12.95;11.93;;;;;;;;;;5114714;28;20039;-78
2022/07/25 01:36:19;;;;;;;12.30;11.30;;;;;;;;;;5114852;28;20132;-78
2022/07/25 01:38:45;;;;;;;11.65;10.65;;;;;;;;;;5114614;28;20439;-79
2022/07/25 01:41:11;;;;;;;13.40;12.35;;;;;;;;;;5114787;28;20383;-79
2022/07/25 01:43:37;;;;;;;11.95;10.95;;;;;;;;;;5114808;28;20024;-79
2022/07/25 01:46:03;;;;;;;13.05;11.98;;;;;;;;;;5114674;28;20035;-78
2022/07/25 01:48:29;;;;;;;13.18;12.07;;;;;;;;;;5114681;28;20043;-79
2022/07/25 01:50:55;;;;;;;11.95;11.05;;;;;;;;;;5114286;28;20026;-79
2022/07/25 01:53:21;;;;;;;11.63;10.68;;;;;;;;;;5114683;28;20055;-79
2022/07/25 01:55:48;;;;;;;12.23;11.32;;;;;;;;;;5114233;28;20032;-78
2022/07/25 01:58:14;;;;;;;11.75;10.75;;;;;;;;;;5114555;28;20035;-78
2022/07/25 02:00:40;;;;;;;12.48;11.45;;;;;;;;;;5114459;28;20087;-79
2022/07/25 02:05:50;;;;;;;12.50;11.45;;;;;;;;;;5114056;28;20057;-78
2022/07/25 02:08:16;;;;;;;12.82;11.82;;;;;;;;;;5114261;28;20040;-79
2022/07/25 02:10:43;;;;;;;13.55;12.35;;;;;;;;;;5113875;28;20406;-79
2022/07/25 02:13:09;;;;;;;13.02;12.02;;;;;;;;;;5114154;28;20098;-79
2022/07/25 02:15:35;;;;;;;12.85;11.85;;;;;;;;;;5114055;28;20032;-79
2022/07/25 02:18:02;;;;;;;13.35;12.35;;;;;;;;;;5113845;28;20103;-79
2022/07/25 02:20:28;;;;;;;12.90;11.88;;;;;;;;;;5114016;28;20050;-78
2022/07/25 02:22:54;;;;;;;14.43;13.20;;;;;;;;;;5113759;28;20102;-79
2022/07/25 02:25:20;;;;;;;12.95;11.88;;;;;;;;;;5114103;28;20032;-79
2022/07/25 02:27:46;;;;;;;11.93;10.82;;;;;;;;;;5113605;28;20057;-79
2022/07/25 02:30:12;;;;;;;13.07;11.98;;;;;;;;;;5113706;28;20410;-78
2022/07/25 02:32:38;;;;;;;12.93;11.93;;;;;;;;;;5113684;28;20520;-79
2022/07/25 02:35:05;;;;;;;13.45;12.48;;;;;;;;;;5113657;28;20028;-78
2022/07/25 02:37:32;;;;;;;13.43;12.30;;;;;;;;;;5113836;28;20487;-79
2022/07/25 02:39:58;;;;;;;13.82;12.63;;;;;;;;;;5113359;28;20107;-78
2022/07/25 02:42:24;;;;;;;13.43;12.18;;;;;;;;;;5113477;28;20020;-79
2022/07/25 02:44:50;;;;;;;13.68;12.48;;;;;;;;;;5113204;28;20031;-77
2022/07/25 02:47:17;;;;;;;13.43;12.23;;;;;;;;;;5113434;28;20498;-79
2022/07/25 02:49:43;;;;;;;14.52;13.25;;;;;;;;;;5113583;28;20019;-79
2022/07/25 02:52:09;;;;;;;14.98;13.68;;;;;;;;;;5113348;28;20023;-79
2022/07/25 02:54:35;;;;;;;14.15;13.07;;;;;;;;;;5113521;28;20027;-79
2022/07/25 02:57:01;;;;;;;14.10;13.05;;;;;;;;;;5113057;28;20047;-78
2022/07/25 02:59:27;;;;;;;13.55;12.45;;;;;;;;;;5113296;28;20020;-78
2022/07/25 03:01:53;;;;;;;14.13;13.05;;;;;;;;;;5113095;28;20493;-79
2022/07/25 03:04:19;;;;;;;13.38;12.25;;;;;;;;;;5113445;28;20106;-79
2022/07/25 03:06:45;;;;;;;14.52;13.32;;;;;;;;;;5113226;28;20459;-79
2022/07/25 03:09:11;;;;;;;14.32;13.13;;;;;;;;;;5112742;28;20122;-79
2022/07/25 03:11:37;;;;;;;14.77;13.38;;;;;;;;;;5113184;28;20049;-79
2022/07/25 03:14:03;;;;;;;14.57;13.38;;;;;;;;;;5112553;28;20475;-79
2022/07/25 03:16:30;;;;;;;14.15;12.93;;;;;;;;;;5112982;28;20570;-79
2022/07/25 03:18:56;;;;;;;13.85;12.65;;;;;;;;;;5112731;28;20030;-78
2022/07/25 03:21:22;;;;;;;14.98;13.70;;;;;;;;;;5112757;28;20031;-78
2022/07/25 03:23:48;;;;;;;15.02;13.65;;;;;;;;;;5112967;28;20055;-78
2022/07/25 03:26:14;;;;;;;15.18;14.05;;;;;;;;;;5112420;28;20027;-79
2022/07/25 03:28:40;;;;;;;14.40;13.18;;;;;;;;;;5112809;28;20040;-78
2022/07/25 03:31:06;;;;;;;14.15;12.95;;;;;;;;;;5112377;28;20047;-78
2022/07/25 03:33:32;;;;;;;15.65;14.48;;;;;;;;;;5113038;28;20525;-79
2022/07/25 03:35:58;;;;;;;14.77;13.45;;;;;;;;;;5112679;28;20027;-79
2022/07/25 03:38:24;;;;;;;15.32;13.82;;;;;;;;;;5112458;28;20059;-78
2022/07/25 03:40:50;;;;;;;13.63;12.63;;;;;;;;;;5112730;28;20386;-79
2022/07/25 03:43:16;;;;;;;14.27;13.07;;;;;;;;;;5112290;28;20024;-79
2022/07/25 03:45:43;;;;;;;12.57;11.63;;;;;;;;;;5112681;28;20041;-79
2022/07/25 03:48:09;;;;;;;14.65;13.40;;;;;;;;;;5112353;28;20067;-79
2022/07/25 03:50:35;;;;;;;13.70;12.70;;;;;;;;;;5112457;28;20075;-79
2022/07/25 03:53:01;;;;;;;13.77;12.52;;;;;;;;;;5111626;28;20024;-79
2022/07/25 03:55:27;;;;;;;13.50;12.40;;;;;;;;;;5110899;28;20032;-79
2022/07/25 03:57:53;;;;;;;14.68;13.48;;;;;;;;;;5110799;28;20161;-79
2022/07/25 04:00:19;;;;;;;13.48;12.48;;;;;;;;;;5111207;28;20019;-79
2022/07/25 04:02:48;;;;;;;14.25;13.15;;;;;;;;;;5111851;28;20032;-78
2022/07/25 04:05:14;;;;;;;15.48;14.18;;;;;;;;;;5093518;28;20386;-79
2022/07/25 04:07:40;;;;;;;14.45;13.20;;;;;;;;;;5112481;28;20028;-78
2022/07/25 04:10:07;;;;;;;18.15;16.55;;;;;;;;;;5112358;28;20050;-78
2022/07/25 04:12:33;;;;;;;15.32;13.80;;;;;;;;;;5110991;28;20039;-79
2022/07/25 04:15:01;;;;;;;17.40;15.90;;;;;;;;;;5111190;28;20110;-79
2022/07/25 04:17:30;;;;;;;16.35;15.15;;;;;;;;;;5109697;28;20032;-79
2022/07/25 04:19:56;;;;;;;13.57;12.20;;;;;;;;;;5111810;28;20089;-79
2022/07/25 04:22:22;;;;;;;13.43;12.27;;;;;;;;;;5111821;28;20046;-79
2022/07/25 04:24:48;;;;;;;14.23;12.98;;;;;;;;;;5112323;28;20031;-78
2022/07/25 04:27:15;;;;;;;13.73;12.55;;;;;;;;;;5111990;28;20027;-79
2022/07/25 04:29:41;;;;;;;17.20;15.50;;;;;;;;;;5112110;28;20036;-79
2022/07/25 04:32:07;;;;;;;15.13;13.88;;;;;;;;;;5112139;28;20051;-78
2022/07/25 04:34:33;;;;;;;13.55;12.35;;;;;;;;;;5111927;28;20099;-79
2022/07/25 04:36:59;;;;;;;14.93;13.65;;;;;;;;;;5112247;28;20046;-80
2022/07/25 04:39:25;;;;;;;14.57;13.27;;;;;;;;;;5111883;28;20027;-79
2022/07/25 04:41:52;;;;;;;13.32;12.23;;;;;;;;;;5112137;28;20019;-79
2022/07/25 04:44:18;;;;;;;13.93;12.93;;;;;;;;;;5112148;28;20494;-79
2022/07/25 04:46:44;;;;;;;19.58;17.88;;;;;;;;;;5111814;28;20031;-78
2022/07/25 04:49:10;;;;;;;17.17;15.68;;;;;;;;;;5111083;28;20114;-79
2022/07/25 04:51:37;;;;;;;14.23;12.82;;;;;;;;;;5111037;28;20016;-79
2022/07/25 04:54:03;;;;;;;13.98;12.68;;;;;;;;;;5111129;28;20481;-79
2022/07/25 04:56:29;;;;;;;12.90;11.82;;;;;;;;;;5110834;28;20373;-78
2022/07/25 04:58:56;;;;;;;12.32;11.43;;;;;;;;;;5110967;28;20030;-78
2022/07/25 05:01:22;;;;;;;13.43;12.27;;;;;;;;;;5092758;28;20034;-79
2022/07/25 05:03:50;;;;;;;13.23;12.02;;;;;;;;;;5108408;28;20416;-79
2022/07/25 05:06:16;;;;;;;12.68;11.55;;;;;;;;;;5115222;28;20102;-78
2022/07/25 05:08:42;;;;;;;12.68;11.52;;;;;;;;;;5114588;28;20039;-79
2022/07/25 05:11:09;;;;;;;13.07;11.98;;;;;;;;;;5112432;28;20032;-79
2022/07/25 05:13:35;;;;;;;12.38;11.35;;;;;;;;;;5114174;28;20059;-80
2022/07/25 05:16:01;;;;;;;13.00;11.82;;;;;;;;;;5097216;28;20062;-78
2022/07/25 05:18:28;;;;;;;11.80;10.80;;;;;;;;;;5115576;28;20020;-76
2022/07/25 05:20:54;;;;;;;13.45;12.35;;;;;;;;;;5080318;28;20027;-77
2022/07/25 05:23:21;;;;;;;11.73;10.82;;;;;;;;;;5113228;28;20031;-79
2022/07/25 05:25:47;;;;;;;11.75;10.82;;;;;;;;;;5112421;28;20035;-81
2022/07/25 05:28:14;;;;;;;12.57;11.60;;;;;;;;;;5093534;28;20035;-79
2022/07/25 05:30:40;;;;;;;11.63;10.63;;;;;;;;;;5114103;28;20035;-80
2022/07/25 05:33:06;;;;;;;12.00;10.90;;;;;;;;;;5114369;28;20030;-82
2022/07/25 05:35:32;;;;;;;11.27;10.48;;;;;;;;;;5112140;27;20031;-82
2022/07/25 05:37:59;;;;;;;12.00;10.93;;;;;;;;;;5113455;28;20027;-83
2022/07/25 05:40:25;;;;;;;11.40;10.50;;;;;;;;;;5095634;28;20118;-81
2022/07/25 05:42:51;;;;;;;11.00;10.20;;;;;;;;;;5113064;28;20346;-81
2022/07/25 05:45:17;;;;;;;12.85;9.98;;;;;;;;;;5114177;28;20039;-82
2022/07/25 05:47:43;;;;;;;11.43;10.43;;;;;;;;;;5106311;28;20322;-78
2022/07/25 05:50:10;;;;;;;11.27;10.38;;;;;;;;;;5101433;28;20028;-77
2022/07/25 05:52:36;;;;;;;15.00;13.65;;;;;;;;;;5104535;28;20115;-78
2022/07/25 05:55:02;;;;;;;12.35;10.02;;;;;;;;;;5102382;28;20016;-83
2022/07/25 05:57:28;;;;;;;11.60;10.60;;;;;;;;;;5113439;28;20502;-78
2022/07/25 05:59:54;;;;;;;22.63;20.77;;;;;;;;;;5114762;28;20031;-81
2022/07/25 06:02:20;;;;;;;11.90;10.95;;;;;;;;;;5113971;28;20028;-82
2022/07/25 06:04:46;;;;;;;11.68;10.57;;;;;;;;;;5113628;28;20050;-84
2022/07/25 06:07:12;;;;;;;12.02;11.00;;;;;;;;;;5114230;28;20059;-81
2022/07/25 06:09:38;;;;;;;11.30;10.40;;;;;;;;;;5109764;28;20118;-80
2022/07/25 06:12:05;;;;;;;11.23;10.32;;;;;;;;;;5106837;28;20020;-83
2022/07/25 06:14:31;;;;;;;12.07;10.88;;;;;;;;;;5114065;28;20076;-82
2022/07/25 06:16:57;;;;;;;11.38;10.30;;;;;;;;;;5112818;28;20508;-81
2022/07/25 06:19:23;;;;;;;11.45;10.45;;;;;;;;;;5113475;28;20030;-82
2022/07/25 06:21:49;;;;;;;11.77;10.73;;;;;;;;;;5113954;28;20047;-77
2022/07/25 06:24:15;;;;;;;12.18;11.07;;;;;;;;;;5113210;28;20032;-81
2022/07/25 06:26:45;;;;;;;12.55;11.25;;;;;;;;;;5112740;28;20039;-80
2022/07/25 06:29:11;;;;;;;12.25;11.25;;;;;;;;;;5112547;28;20508;-79
2022/07/25 06:31:37;;;;;;;11.80;10.73;;;;;;;;;;5112686;28;20199;-78
2022/07/25 06:34:04;;;;;;;11.68;10.77;;;;;;;;;;5107193;28;20054;-78
2022/07/25 06:36:30;;;;;;;11.50;10.50;;;;;;;;;;5112015;28;20027;-81
2022/07/25 06:38:56;;;;;;;10.82;10.10;;;;;;;;;;5112374;28;20593;-84
2022/07/25 06:41:22;;;;;;;10.85;9.85;;;;;;;;;;5111409;28;20039;-83
2022/07/25 06:43:49;;;;;;;10.85;9.95;;;;;;;;;;5111955;28;20067;-87
2022/07/25 06:46:15;;;;;;;10.63;9.70;;;;;;;;;;5111861;28;20028;-79
2022/07/25 06:48:42;;;;;;;11.55;10.45;;;;;;;;;;5111332;28;20035;-81
2022/07/25 06:51:08;;;;;;;11.10;10.13;;;;;;;;;;5112261;28;20024;-82
2022/07/25 06:53:34;;;;;;;11.60;10.50;;;;;;;;;;5102576;28;20028;-80
2022/07/25 06:56:00;;;;;;;17.70;13.77;;;;;;;;;;5097039;28;20700;-81
2022/07/25 06:58:26;;;;;;;49.25;26.95;;;;;;;;;;5103518;28;20028;-80
2022/07/25 07:00:52;;;;;;;142.73;60.40;;;;;;;;;;5110632;28;20114;-82
2022/07/25 07:03:18;;;;;;;72.88;35.47;;;;;;;;;;5111096;28;20032;-79
2022/07/25 07:05:44;;;;;;;21.77;15.20;;;;;;;;;;5111719;28;20027;-78
2022/07/25 07:08:11;;;;;;;28.52;17.30;;;;;;;;;;5104381;28;20131;-79
2022/07/25 07:10:38;;;;;;;68.20;30.23;;;;;;;;;;5104857;28;20050;-81
2022/07/25 07:13:12;;;;;;;46.42;23.13;;;;;;;;;;5110038;28;20049;-75
2022/07/25 07:15:38;;;;;;;25.90;16.70;;;;;;;;;;5093333;28;20581;-80
2022/07/25 07:18:05;;;;;;;24.38;18.52;;;;;;;;;;5110320;28;20034;-79
2022/07/25 07:20:32;;;;;;;25.52;18.05;;;;;;;;;;5110525;28;20019;-79
2022/07/25 07:22:58;;;;;;;20.40;16.60;;;;;;;;;;5109916;28;20031;-78
2022/07/25 07:25:24;;;;;;;14.05;12.65;;;;;;;;;;5109952;28;20032;-80
2022/07/25 07:27:50;;;;;;;11.55;10.45;;;;;;;;;;5109259;28;20028;-79
2022/07/25 07:30:16;;;;;;;13.95;12.55;;;;;;;;;;5106990;28;20051;-82
2022/07/25 07:32:43;;;;;;;71.05;33.55;;;;;;;;;;5109040;28;20505;-80
2022/07/25 07:35:10;;;;;;;206.60;86.72;;;;;;;;;;5109300;28;20031;-78
2022/07/25 07:37:36;;;;;;;237.57;99.85;;;;;;;;;;5108938;28;20027;-79
2022/07/25 07:40:03;;;;;;;126.68;53.08;;;;;;;;;;5108988;28;20031;-81
2022/07/25 07:42:36;;;;;;;42.53;23.27;;;;;;;;;;5108967;28;20031;-79
2022/07/25 07:45:09;;;;;;;249.40;108.20;;;;;;;;;;5109293;28;20478;-84
2022/07/25 07:47:35;;;;;;;266.75;113.63;;;;;;;;;;5091667;28;20417;-81
2022/07/25 07:50:01;;;;;;;219.25;91.57;;;;;;;;;;5111222;28;20031;-81
2022/07/25 07:52:27;;;;;;;269.58;113.65;;;;;;;;;;5088806;28;20027;-77
2022/07/25 07:57:38;;;;;;;145.20;64.35;;;;;;;;;;5108088;28;20108;-81
2022/07/25 08:00:04;;;;;;;20.52;13.90;;;;;;;;;;5109095;28;20027;-76
2022/07/25 08:02:30;;;;;;;33.90;20.02;;;;;;;;;;5111188;28;20055;-78
2022/07/25 08:04:56;;;;;;;14.93;12.50;;;;;;;;;;5109817;28;20071;-76
2022/07/25 08:07:22;;;;;;;35.97;20.20;;;;;;;;;;5110939;28;20035;-79
2022/07/25 08:09:49;;;;;;;12.55;11.25;;;;;;;;;;5110898;28;20043;-76
2022/07/25 08:12:15;;;;;;;21.30;16.08;;;;;;;;;;5111067;28;20046;-80
2022/07/25 08:14:41;;;;;;;12.23;11.02;;;;;;;;;;5109855;28;20053;-80
2022/07/25 08:17:07;;;;;;;11.70;10.43;;;;;;;;;;5104268;28;20036;-79
2022/07/25 08:19:33;;;;;;;12.10;10.27;;;;;;;;;;5111544;28;20532;-80
2022/07/25 08:21:59;;;;;;;12.52;11.32;;;;;;;;;;5107992;28;20052;-81
2022/07/25 08:24:25;;;;;;;13.90;11.48;;;;;;;;;;5106783;28;20462;-78
2022/07/25 08:26:51;;;;;;;11.70;10.20;;;;;;;;;;5110659;28;20035;-83
2022/07/25 08:29:17;;;;;;;11.30;10.20;;;;;;;;;;5095242;28;20567;-82
2022/07/25 08:31:43;;;;;;;11.23;10.23;;;;;;;;;;5090319;28;20067;-82
2022/07/25 08:34:09;;;;;;;11.07;10.07;;;;;;;;;;5104875;28;20759;-78
2022/07/25 08:36:36;;;;;;;10.13;9.32;;;;;;;;;;5109177;28;20028;-77
2022/07/25 08:39:02;;;;;;;10.52;9.63;;;;;;;;;;5108633;28;20032;-77
2022/07/25 08:41:28;;;;;;;9.98;9.07;;;;;;;;;;5096729;28;20467;-83
2022/07/25 08:43:55;;;;;;;10.80;9.57;;;;;;;;;;5106855;28;20711;-83
2022/07/25 08:46:21;;;;;;;9.30;8.52;;;;;;;;;;5111869;28;20467;-83
2022/07/25 08:48:48;;;;;;;10.80;9.70;;;;;;;;;;5098655;28;20075;-81
2022/07/25 08:51:14;;;;;;;15.52;14.23;;;;;;;;;;5101007;28;20019;-82
2022/07/25 08:53:40;;;;;;;12.55;11.45;;;;;;;;;;5105943;28;20077;-80
2022/07/25 08:56:07;;;;;;;9.60;8.77;;;;;;;;;;5099072;28;20173;-81
2022/07/25 08:58:34;;;;;;;11.15;10.02;;;;;;;;;;5102903;28;20790;-81
2022/07/25 09:01:00;;;;;;;10.55;9.55;;;;;;;;;;5113845;28;20086;-81
2022/07/25 09:03:26;;;;;;;10.80;9.90;;;;;;;;;;5114579;28;20020;-81
2022/07/25 09:05:52;;;;;;;11.10;10.13;;;;;;;;;;5114476;28;20028;-79
2022/07/25 09:08:18;;;;;;;10.23;9.32;;;;;;;;;;5112658;28;20040;-78
2022/07/25 09:10:49;;;;;;;10.23;9.40;;;;;;;;;;5114130;28;20140;-81
2022/07/25 09:13:15;;;;;;;9.43;8.50;;;;;;;;;;5095016;28;20031;-80
2022/07/25 09:15:46;;;;;;;10.90;9.93;;;;;;;;;;5095610;28;20031;-81
2022/07/25 09:18:13;;;;;;;10.30;9.20;;;;;;;;;;5113584;28;20082;-78
2022/07/25 09:20:41;;;;;;;11.65;10.70;;;;;;;;;;5113597;28;20085;-82
2022/07/25 09:23:08;;;;;;;10.38;9.57;;;;;;;;;;5101601;27;20024;-81
2022/07/25 09:25:34;;;;;;;9.93;9.02;;;;;;;;;;5099169;28;20019;-82
2022/07/25 09:28:14;;;;;;;11.25;10.23;;;;;;;;;;5109542;28;20032;-83
2022/07/25 09:30:40;;;;;;;11.27;10.27;;;;;;;;;;5093937;28;20056;-80
2022/07/25 09:33:07;;;;;;;10.27;9.48;;;;;;;;;;5110148;28;20106;-79
2022/07/25 09:35:37;;;;;;;9.02;8.23;;;;;;;;;;5112680;28;20016;-80
2022/07/25 09:38:07;;;;;;;9.10;8.30;;;;;;;;;;5105065;28;20027;-87
2022/07/25 09:40:33;;;;;;;8.75;8.02;;;;;;;;;;5108084;28;20112;-82
2022/07/25 09:43:00;;;;;;;9.90;9.10;;;;;;;;;;5112246;28;20497;-81
2022/07/25 09:45:26;;;;;;;10.02;9.23;;;;;;;;;;5112981;28;20134;-84
2022/07/25 09:47:56;;;;;;;9.75;8.95;;;;;;;;;;5113231;28;20081;-81
2022/07/25 09:50:24;;;;;;;10.20;9.05;;;;;;;;;;5112928;28;20031;-79
2022/07/25 09:52:54;;;;;;;9.63;8.93;;;;;;;;;;5094195;28;20036;-83
2022/07/25 09:55:23;;;;;;;9.38;8.52;;;;;;;;;;5113310;28;20394;-80
2022/07/25 09:57:51;;;;;;;9.02;8.23;;;;;;;;;;5113171;28;20363;-78
2022/07/25 10:00:36;;;;;;;10.02;9.23;;;;;;;;;;5112662;28;20034;-81
2022/07/25 10:03:14;;;;;;;9.68;8.48;;;;;;;;;;5093419;28;20703;-81
2022/07/25 10:05:59;;;;;;;9.60;8.77;;;;;;;;;;5113138;28;20036;-78
2022/07/25 10:08:25;;;;;;;9.70;8.90;;;;;;;;;;5112654;28;20040;-85
2022/07/25 10:10:52;;;;;;;8.75;8.00;;;;;;;;;;5112689;28;20027;-81
2022/07/25 10:13:28;;;;;;;15.52;11.48;;;;;;;;;;5111850;28;20100;-80
2022/07/25 10:15:54;;;;;;;86.90;40.65;;;;;;;;;;5112831;28;20046;-80
2022/07/25 10:18:22;;;;;;;119.88;52.85;;;;;;;;;;5110276;28;20036;-81
2022/07/25 10:20:50;;;;;;;72.05;34.30;;;;;;;;;;5108968;28;20465;-81
2022/07/25 10:23:21;;;;;;;23.38;14.80;;;;;;;;;;5091871;28;20038;-80
2022/07/25 10:25:58;;;;;;;13.48;9.73;;;;;;;;;;5076215;28;20034;-80
2022/07/25 10:28:34;;;;;;;9.45;8.57;;;;;;;;;;5108206;28;20031;-82
2022/07/25 10:31:14;;;;;;;48.72;24.45;;;;;;;;;;5101319;28;20051;-81
2022/07/25 10:33:40;;;;;;;126.18;54.42;;;;;;;;;;5083607;28;20111;-79
2022/07/25 10:36:06;;;;;;;162.15;70.80;;;;;;;;;;5094355;28;20044;-79
2022/07/25 10:38:33;;;;;;;85.53;39.45;;;;;;;;;;5093318;28;20032;-78
2022/07/25 10:41:03;;;;;;;10.70;8.02;;;;;;;;;;5093823;28;20038;-74
2022/07/25 10:43:36;;;;;;;7.57;6.88;;;;;;;;;;5059317;28;20035;-80
2022/07/25 10:46:11;;;;;;;9.45;8.27;;;;;;;;;;5080017;28;20028;-79
2022/07/25 10:48:37;;;;;;;7.35;6.75;;;;;;;;;;5080254;28;20143;-79
2022/07/25 10:51:05;;;;;;;7.57;6.88;;;;;;;;;;5084499;28;20063;-82
2022/07/25 10:53:32;;;;;;;8.38;7.57;;;;;;;;;;5089005;28;20062;-83
2022/07/25 10:56:03;;;;;;;7.45;6.22;;;;;;;;;;5094241;28;20035;-81
2022/07/25 10:58:40;;;;;;;6.82;6.32;;;;;;;;;;5107241;28;20020;-86
2022/07/25 11:01:07;;;;;;;6.90;6.38;;;;;;;;;;5092207;28;20028;-80
2022/07/25 11:03:33;;;;;;;7.18;6.43;;;;;;;;;;5091457;28;20070;-78
2022/07/25 11:05:59;;;;;;;9.45;8.57;;;;;;;;;;5091447;28;20036;-82
2022/07/25 11:08:44;;;;;;;7.60;6.95;;;;;;;;;;5088122;28;20566;-81
2022/07/25 11:11:10;;;;;;;7.65;6.63;;;;;;;;;;5096031;28;20023;-79
2022/07/25 11:13:40;;;;;;;7.65;7.05;;;;;;;;;;5102030;28;20039;-79
2022/07/25 11:16:07;;;;;;;7.10;6.40;;;;;;;;;;5094201;28;20032;-83
2022/07/25 11:18:38;;;;;;;12.68;11.52;;;;;;;;;;5090126;28;20067;-81
2022/07/25 11:21:06;;;;;;;8.02;7.30;;;;;;;;;;5082271;28;20357;-82
2022/07/25 11:23:32;;;;;;;6.97;6.45;;;;;;;;;;5085615;28;20038;-81
2022/07/25 11:26:17;;;;;;;7.25;6.65;;;;;;;;;;5085328;28;20028;-80
2022/07/25 11:28:44;;;;;;;7.05;6.45;;;;;;;;;;5092002;28;20430;-80
2022/07/25 11:31:13;;;;;;;7.57;6.28;;;;;;;;;;5100124;28;20492;-81
2022/07/25 11:33:40;;;;;;;7.00;6.40;;;;;;;;;;5088681;28;20034;-79
2022/07/25 11:36:06;;;;;;;9.93;9.07;;;;;;;;;;5082642;28;20029;-80
2022/07/25 11:38:33;;;;;;;7.15;6.47;;;;;;;;;;5082364;28;20059;-81
2022/07/25 11:40:59;;;;;;;6.40;5.88;;;;;;;;;;5082690;28;20032;-80
2022/07/25 11:43:25;;;;;;;5.30;4.80;;;;;;;;;;5225777;22;20049;-73
2022/07/25 11:46:10;;;;;;;8.18;7.55;;;;;;;;;;5016548;28;20033;-79
2022/07/25 11:48:37;;;;;;;11.25;10.25;;;;;;;;;;5011264;28;20038;-77
2022/07/25 11:51:22;;;;;;;9.20;8.43;;;;;;;;;;5009378;28;20109;-79
2022/07/25 11:53:50;;;;;;;5.47;5.07;;;;;;;;;;4997260;28;20033;-83
2022/07/25 11:56:20;;;;;;;5.47;5.07;;;;;;;;;;5292866;22;20057;-81
2022/07/25 11:58:57;;;;;;;5.85;5.35;;;;;;;;;;5029056;28;20040;-78
2022/07/25 12:01:24;;;;;;;7.47;6.90;;;;;;;;;;5029490;28;20029;-78
2022/07/25 12:03:50;;;;;;;9.88;8.80;;;;;;;;;;5026413;28;20025;-76
2022/07/25 12:06:16;;;;;;;190.90;84.57;;;;;;;;;;5023891;28;20029;-75
2022/07/25 12:08:43;;;;;;;108.90;54.28;;;;;;;;;;5031895;28;20037;-77
2022/07/25 12:11:27;;;;;;;10.60;9.55;;;;;;;;;;5030500;28;20033;-78
2022/07/25 12:14:02;;;;;;;32.35;19.30;;;;;;;;;;5026833;28;20117;-78
2022/07/25 12:16:28;;;;;;;27.95;14.32;;;;;;;;;;5033763;28;20057;-74
2022/07/25 12:18:55;;;;;;;86.15;40.15;;;;;;;;;;5034237;28;20037;-75
2022/07/25 12:21:22;;;;;;;52.00;27.10;;;;;;;;;;5034597;28;20021;-78
2022/07/25 12:23:48;;;;;;;95.60;43.60;;;;;;;;;;5034504;28;20035;-78
2022/07/25 12:26:14;;;;;;;13.18;9.98;;;;;;;;;;5034912;28;20061;-78
2022/07/25 12:28:40;;;;;;;29.40;17.23;;;;;;;;;;5041542;28;20376;-79
2022/07/25 12:31:06;;;;;;;32.05;17.98;;;;;;;;;;5036859;28;20038;-77
2022/07/25 12:33:33;;;;;;;6.78;6.07;;;;;;;;;;5034379;28;20387;-77
2022/07/25 12:36:00;;;;;;;11.43;8.32;;;;;;;;;;5034320;28;20403;-78
2022/07/25 12:38:26;;;;;;;14.85;10.23;;;;;;;;;;5034379;28;20087;-79
2022/07/25 12:40:52;;;;;;;20.00;12.00;;;;;;;;;;5039637;28;20405;-77
2022/07/25 12:43:19;;;;;;;7.97;7.20;;;;;;;;;;5040134;28;20227;-82
2022/07/25 12:45:45;;;;;;;11.23;9.15;;;;;;;;;;5023346;28;20055;-78
2022/07/25 12:48:13;;;;;;;11.55;8.98;;;;;;;;;;5031579;28;20033;-79
2022/07/25 12:50:40;;;;;;;9.85;8.52;;;;;;;;;;5034460;28;20037;-81
2022/07/25 12:53:06;;;;;;;7.70;6.95;;;;;;;;;;5023627;28;20419;-78
2022/07/25 12:55:32;;;;;;;8.07;7.22;;;;;;;;;;5040978;28;20471;-80
2022/07/25 12:57:58;;;;;;;9.82;8.32;;;;;;;;;;5067836;28;20478;-79
2022/07/25 13:00:24;;;;;;;87.00;43.75;;;;;;;;;;5055231;28;20029;-81
2022/07/25 13:02:51;;;;;;;129.75;60.20;;;;;;;;;;5069567;28;20463;-78
2022/07/25 13:05:18;;;;;;;62.15;31.35;;;;;;;;;;5068609;28;20476;-76
2022/07/25 13:07:45;;;;;;;20.83;12.05;;;;;;;;;;5055018;28;20025;-77
2022/07/25 13:10:11;;;;;;;18.33;11.43;;;;;;;;;;5054392;28;20033;-77
2022/07/25 13:12:37;;;;;;;36.55;19.17;;;;;;;;;;5054948;28;20033;-78
2022/07/25 13:15:04;;;;;;;56.17;29.10;;;;;;;;;;5054852;28;20025;-78
2022/07/25 13:17:31;;;;;;;12.57;9.02;;;;;;;;;;5054471;28;20112;-75
2022/07/25 13:19:57;;;;;;;7.63;6.93;;;;;;;;;;5054424;28;20112;-76
2022/07/25 13:22:23;;;;;;;5.80;5.30;;;;;;;;;;5054715;28;20025;-76
2022/07/25 13:24:50;;;;;;;5.93;5.43;;;;;;;;;;5054415;28;20087;-78
2022/07/25 13:27:20;;;;;;;6.18;5.47;;;;;;;;;;5052098;28;20037;-76
2022/07/25 13:29:46;;;;;;;5.28;4.82;;;;;;;;;;5054979;28;20048;-76
2022/07/25 13:32:13;;;;;;;5.10;4.60;;;;;;;;;;5054348;28;20087;-77
2022/07/25 13:34:39;;;;;;;5.38;4.97;;;;;;;;;;5054998;28;20029;-76
2022/07/25 13:37:06;;;;;;;5.43;4.93;;;;;;;;;;5067128;28;20039;-78
2022/07/25 13:39:32;;;;;;;5.75;4.88;;;;;;;;;;5074260;28;20039;-77
2022/07/25 13:41:58;;;;;;;5.15;4.72;;;;;;;;;;5074703;28;20025;-77
2022/07/25 13:44:24;;;;;;;5.47;4.90;;;;;;;;;;5074363;28;20158;-76
2022/07/25 13:46:50;;;;;;;5.53;5.03;;;;;;;;;;5074158;28;20047;-78
2022/07/25 13:49:17;;;;;;;5.30;4.80;;;;;;;;;;5074164;28;20493;-77
2022/07/25 13:51:44;;;;;;;5.38;4.97;;;;;;;;;;5074518;28;20028;-78
2022/07/25 13:54:10;;;;;;;4.85;4.45;;;;;;;;;;5074342;28;20028;-78
2022/07/25 13:56:37;;;;;;;5.20;4.80;;;;;;;;;;5048104;28;20104;-77
2022/07/25 13:59:03;;;;;;;5.82;5.22;;;;;;;;;;5043068;28;20104;-76
2022/07/25 14:01:29;;;;;;;5.13;4.72;;;;;;;;;;5309480;23;20069;-80
2022/07/25 14:03:55;;;;;;;4.80;4.40;;;;;;;;;;5030714;28;20029;-83
2022/07/25 14:06:22;;;;;;;5.25;4.70;;;;;;;;;;5033542;28;20025;-80
2022/07/25 14:08:48;;;;;;;7.38;5.90;;;;;;;;;;5033262;28;20084;-84
2022/07/25 14:11:14;;;;;;;4.47;4.07;;;;;;;;;;5016137;28;20033;-84
2022/07/25 14:13:42;;;;;;;4.22;3.92;;;;;;;;;;5033961;28;20057;-85
2022/07/25 14:16:08;;;;;;;4.57;4.28;;;;;;;;;;5034058;28;20116;-82
2022/07/25 14:18:34;;;;;;;5.25;4.03;;;;;;;;;;5033807;28;20034;-81
2022/07/25 14:21:00;;;;;;;4.85;4.38;;;;;;;;;;5034065;28;20056;-83
2022/07/25 14:23:26;;;;;;;5.35;4.95;;;;;;;;;;5033582;28;20021;-83
2022/07/25 14:25:52;;;;;;;5.03;4.45;;;;;;;;;;5033719;28;20060;-84
2022/07/25 14:28:19;;;;;;;6.05;5.45;;;;;;;;;;5033303;28;20025;-83